createdAt,value
2022-11-16T00:01:07.724Z,91040.03
2022-11-16T00:03:35.614Z,91036.31
2022-11-16T00:06:03.425Z,91027.56
2022-11-16T00:08:31.174Z,91014.06
2022-11-16T00:11:15.391Z,91019.22
2022-11-16T00:13:45.163Z,91002.81
2022-11-16T00:16:12.967Z,90988.25
2022-11-16T00:18:56.405Z,90988.19
2022-11-16T00:21:23.884Z,90992.66
2022-11-16T00:23:51.240Z,90983.97
2022-11-16T00:26:18.979Z,90998.31
2022-11-16T00:28:46.539Z,90994.84
2022-11-16T00:31:25.383Z,90998.97
2022-11-16T00:33:52.908Z,90997.44
2022-11-16T00:36:20.700Z,90995.19
2022-11-16T00:38:53.579Z,90995.97
2022-11-16T00:41:21.346Z,90999.31
2022-11-16T00:43:49.011Z,91006.53
2022-11-16T00:46:16.868Z,90997.00
2022-11-16T00:48:44.347Z,91001.16
2022-11-16T00:51:12.074Z,91019.59
2022-11-16T00:53:39.757Z,91009.41
2022-11-16T00:56:07.420Z,91009.03
2022-11-16T00:58:35.055Z,91012.94
2022-11-16T01:01:02.698Z,91020.50
2022-11-16T01:03:30.395Z,91025.22
2022-11-16T01:06:05.369Z,91032.34
2022-11-16T01:08:33.137Z,91023.91
2022-11-16T01:11:00.854Z,91026.63
2022-11-16T01:13:28.532Z,91027.94
2022-11-16T01:15:56.297Z,91032.25
2022-11-16T01:18:24.073Z,91030.19
2022-11-16T01:20:51.447Z,91034.38
2022-11-16T01:23:19.204Z,91036.56
2022-11-16T01:25:46.938Z,91027.75
2022-11-16T01:28:14.697Z,91038.66
2022-11-16T01:30:42.301Z,91042.44
2022-11-16T01:33:09.560Z,91047.28
2022-11-16T01:35:36.867Z,91052.94
2022-11-16T01:38:04.562Z,91054.78
2022-11-16T01:40:45.235Z,91048.50
2022-11-16T01:43:12.886Z,91047.34
2022-11-16T01:45:40.519Z,91050.72
2022-11-16T01:48:08.326Z,91045.47
2022-11-16T01:50:35.823Z,91034.84
2022-11-16T01:53:03.167Z,91027.28
2022-11-16T01:55:30.918Z,91030.78
2022-11-16T01:57:58.418Z,91033.25
2022-11-16T02:00:26.261Z,91032.19
2022-11-16T02:02:53.653Z,91029.50
2022-11-16T02:05:20.992Z,91022.50
2022-11-16T02:07:48.753Z,91029.72
2022-11-16T02:10:16.213Z,91033.31
2022-11-16T02:12:43.884Z,91030.53
2022-11-16T02:15:11.640Z,91030.78
2022-11-16T02:17:39.699Z,91024.69
2022-11-16T02:20:07.187Z,91017.13
2022-11-16T02:22:34.909Z,91019.00
2022-11-16T02:25:06.278Z,91021.38
2022-11-16T02:27:33.964Z,91019.13
2022-11-16T02:30:01.596Z,91030.44
2022-11-16T02:32:29.384Z,91038.38
2022-11-16T02:34:56.711Z,91036.78
2022-11-16T02:37:24.088Z,91032.69
2022-11-16T02:39:51.442Z,91033.13
2022-11-16T02:42:18.893Z,91037.22
2022-11-16T02:44:46.686Z,91032.66
2022-11-16T02:47:19.524Z,91044.00
2022-11-16T02:49:47.100Z,91034.13
2022-11-16T02:52:14.427Z,91041.69
2022-11-16T02:54:42.139Z,91043.94
2022-11-16T02:57:09.450Z,91041.31
2022-11-16T02:59:36.777Z,91033.75
2022-11-16T03:02:04.315Z,91026.47
2022-11-16T03:04:31.855Z,91020.97
2022-11-16T03:07:15.332Z,91027.53
2022-11-16T03:09:45.094Z,91012.28
2022-11-16T03:12:12.547Z,91012.31
2022-11-16T03:14:41.329Z,91012.63
2022-11-16T03:17:08.895Z,91013.88
2022-11-16T03:19:36.263Z,91003.00
2022-11-16T03:22:03.709Z,90999.97
2022-11-16T03:24:31.190Z,90998.25
2022-11-16T03:26:59.065Z,90998.75
2022-11-16T03:29:26.604Z,90995.38
2022-11-16T03:31:53.952Z,90992.84
2022-11-16T03:34:21.325Z,90984.19
2022-11-16T03:36:48.596Z,90977.81
2022-11-16T03:39:15.930Z,90976.38
2022-11-16T03:41:43.706Z,90969.97
2022-11-16T03:44:28.244Z,90978.41
2022-11-16T03:46:55.607Z,90973.78
2022-11-16T03:49:23.179Z,90970.47
2022-11-16T03:51:51.064Z,90967.41
2022-11-16T03:54:18.514Z,90976.06
2022-11-16T03:56:45.798Z,90973.00
2022-11-16T03:59:13.274Z,90973.28
2022-11-16T04:01:44.767Z,90967.97
2022-11-16T04:04:12.719Z,90966.31
2022-11-16T04:06:40.072Z,90965.84
2022-11-16T04:09:07.423Z,90960.13
2022-11-16T04:11:34.883Z,90959.03
2022-11-16T04:14:22.739Z,90957.41
2022-11-16T04:16:50.062Z,90967.03
2022-11-16T04:19:17.435Z,90962.63
2022-11-16T04:21:45.202Z,90975.19
2022-11-16T04:24:12.560Z,90965.84
2022-11-16T04:26:39.926Z,90970.63
2022-11-16T04:29:07.250Z,90976.78
2022-11-16T04:31:34.656Z,90974.06
2022-11-16T04:34:02.001Z,90968.63
2022-11-16T04:36:29.453Z,90965.78
2022-11-16T04:38:56.783Z,90963.59
2022-11-16T04:41:24.163Z,90982.78
2022-11-16T04:43:51.486Z,90983.56
2022-11-16T04:46:18.871Z,90985.50
2022-11-16T04:48:46.224Z,90978.28
2022-11-16T04:51:13.903Z,90976.41
2022-11-16T04:53:41.169Z,90987.28
2022-11-16T04:56:08.623Z,90981.97
2022-11-16T04:58:36.204Z,90976.63
2022-11-16T05:01:03.931Z,90976.34
2022-11-16T05:03:31.690Z,90979.31
2022-11-16T05:05:59.060Z,90992.63
2022-11-16T05:08:26.596Z,90985.09
2022-11-16T05:10:54.469Z,90974.94
2022-11-16T05:13:21.816Z,90987.38
2022-11-16T05:15:49.601Z,90983.63
2022-11-16T05:18:19.204Z,90990.00
2022-11-16T05:20:46.551Z,90988.00
2022-11-16T05:23:13.922Z,90990.75
2022-11-16T05:25:41.363Z,90988.44
2022-11-16T05:28:08.814Z,90996.75
2022-11-16T05:30:36.547Z,90988.47
2022-11-16T05:33:04.449Z,90993.34
2022-11-16T05:35:31.920Z,90984.28
2022-11-16T05:37:59.251Z,90981.31
2022-11-16T05:40:27.010Z,90989.97
2022-11-16T05:42:54.795Z,90984.66
2022-11-16T05:45:36.174Z,90972.88
2022-11-16T05:48:03.757Z,90989.03
2022-11-16T05:50:31.240Z,90984.44
2022-11-16T05:53:12.159Z,90984.16
2022-11-16T05:55:39.886Z,90985.00
2022-11-16T05:58:07.295Z,90983.41
2022-11-16T06:00:34.883Z,90979.25
2022-11-16T06:03:02.661Z,90987.97
2022-11-16T06:05:30.264Z,90984.91
2022-11-16T06:07:58.146Z,90990.50
2022-11-16T06:10:25.709Z,90985.03
2022-11-16T06:12:53.272Z,90991.88
2022-11-16T06:15:26.148Z,90989.81
2022-11-16T06:17:53.633Z,90982.34
2022-11-16T06:20:21.097Z,90978.59
2022-11-16T06:22:50.184Z,90990.00
2022-11-16T06:25:17.726Z,90994.50
2022-11-16T06:27:45.174Z,90985.19
2022-11-16T06:30:23.204Z,90980.97
2022-11-16T06:32:50.741Z,90991.59
2022-11-16T06:35:17.963Z,90983.09
2022-11-16T06:37:45.312Z,90985.03
2022-11-16T06:40:12.689Z,90986.00
2022-11-16T06:42:40.046Z,90992.28
2022-11-16T06:45:07.343Z,90990.69
2022-11-16T06:47:35.129Z,90989.81
2022-11-16T06:50:02.751Z,90988.22
2022-11-16T06:52:30.125Z,90989.44
2022-11-16T06:54:57.563Z,90984.56
2022-11-16T06:57:25.026Z,90986.81
2022-11-16T06:59:52.801Z,90987.59
2022-11-16T07:02:24.137Z,90995.88
2022-11-16T07:04:51.852Z,90991.66
2022-11-16T07:07:21.296Z,91001.41
2022-11-16T07:09:48.975Z,90999.97
2022-11-16T07:12:16.576Z,90998.88
2022-11-16T07:14:43.847Z,90994.44
2022-11-16T07:17:11.350Z,90999.94
2022-11-16T07:19:40.152Z,91004.78
2022-11-16T07:22:07.768Z,91003.19
2022-11-16T07:24:35.253Z,90996.56
2022-11-16T07:27:02.600Z,91004.72
2022-11-16T07:29:30.533Z,90999.97
2022-11-16T07:31:58.403Z,91003.41
2022-11-16T07:34:25.960Z,91001.84
2022-11-16T07:36:53.367Z,90999.97
2022-11-16T07:39:20.696Z,91009.03
2022-11-16T07:41:48.574Z,91010.38
2022-11-16T07:44:15.874Z,91007.03
2022-11-16T07:46:47.886Z,91005.38
2022-11-16T07:49:15.641Z,91008.19
2022-11-16T07:51:42.975Z,91004.81
2022-11-16T07:54:10.604Z,91009.81
2022-11-16T07:56:37.942Z,91016.03
2022-11-16T07:59:05.597Z,91010.75
2022-11-16T08:01:33.615Z,91005.97
2022-11-16T08:04:01.149Z,91011.78
2022-11-16T08:06:28.426Z,91022.25
2022-11-16T08:08:58.533Z,91014.25
2022-11-16T08:11:26.487Z,91012.19
2022-11-16T08:13:53.840Z,91010.97
2022-11-16T08:16:21.413Z,91019.81
2022-11-16T08:18:48.771Z,91018.13
2022-11-16T08:21:16.193Z,91013.88
2022-11-16T08:23:44.903Z,91028.66
2022-11-16T08:26:12.494Z,91031.63
2022-11-16T08:28:40.028Z,91020.34
2022-11-16T08:31:07.270Z,91010.34
2022-11-16T08:33:34.642Z,91014.13
2022-11-16T08:36:01.912Z,91014.84
2022-11-16T08:38:29.546Z,91018.78
2022-11-16T08:40:56.804Z,91017.38
2022-11-16T08:43:24.220Z,91005.91
2022-11-16T08:45:51.813Z,91013.72
2022-11-16T08:48:19.549Z,91015.69
2022-11-16T08:51:21.342Z,91020.91
2022-11-16T08:54:09.044Z,91029.69
2022-11-16T08:56:56.657Z,91018.53
2022-11-16T08:59:44.219Z,91024.41
2022-11-16T09:02:31.778Z,91023.97
2022-11-16T09:05:19.339Z,91024.28
2022-11-16T09:08:06.914Z,91032.69
2022-11-16T09:10:54.462Z,91024.16
2022-11-16T09:13:42.030Z,91018.91
2022-11-16T09:16:29.574Z,91008.00
2022-11-16T09:19:17.151Z,91009.13
2022-11-16T09:22:04.807Z,91003.44
2022-11-16T09:24:52.410Z,91000.75
2022-11-16T09:27:39.963Z,91008.38
2022-11-16T09:30:27.552Z,91006.09
2022-11-16T09:33:15.087Z,91002.72
2022-11-16T09:36:02.658Z,91001.84
2022-11-16T09:41:42.723Z,91016.34
2022-11-16T09:44:09.955Z,91012.66
2022-11-16T09:46:39.801Z,91017.91
2022-11-16T09:49:16.950Z,91028.50
2022-11-16T09:51:45.258Z,91022.41
2022-11-16T09:54:12.976Z,91021.28
2022-11-16T09:56:40.234Z,91034.91
2022-11-16T09:59:07.831Z,91037.19
2022-11-16T10:01:35.269Z,91038.31
2022-11-16T10:04:03.101Z,91031.44
2022-11-16T10:06:30.482Z,91035.56
2022-11-16T10:08:57.848Z,91035.66
2022-11-16T10:11:25.115Z,91036.59
2022-11-16T10:13:52.560Z,91034.59
2022-11-16T10:16:20.015Z,91030.56
2022-11-16T10:18:47.683Z,91031.91
2022-11-16T10:21:15.032Z,91028.44
2022-11-16T10:23:42.298Z,91024.19
2022-11-16T10:26:09.927Z,91017.00
2022-11-16T10:28:37.846Z,91009.69
2022-11-16T10:31:05.399Z,91006.78
2022-11-16T10:33:33.352Z,91020.84
2022-11-16T10:36:01.724Z,91020.00
2022-11-16T10:38:29.241Z,91012.69
2022-11-16T10:40:56.667Z,91012.03
2022-11-16T10:43:24.459Z,91010.59
2022-11-16T10:45:51.924Z,90998.94
2022-11-16T10:48:19.324Z,91003.75
2022-11-16T10:50:46.963Z,90995.13
2022-11-16T10:53:14.411Z,90989.88
2022-11-16T10:55:42.200Z,90988.34
2022-11-16T10:58:15.935Z,90999.75
2022-11-16T11:00:43.665Z,90990.16
2022-11-16T11:03:11.048Z,90986.38
2022-11-16T11:05:39.240Z,90987.47
2022-11-16T11:08:07.373Z,90983.03
2022-11-16T11:10:34.752Z,90972.53
2022-11-16T11:13:02.063Z,90975.19
2022-11-16T11:15:29.386Z,90974.63
2022-11-16T11:17:56.756Z,90980.44
2022-11-16T11:20:24.571Z,90981.19
2022-11-16T11:22:53.660Z,90971.31
2022-11-16T11:25:22.274Z,90971.00
2022-11-16T11:27:50.946Z,90959.91
2022-11-16T11:30:33.446Z,90963.94
2022-11-16T11:33:01.087Z,90962.84
2022-11-16T11:35:28.876Z,90943.69
2022-11-16T11:37:56.559Z,90936.84
2022-11-16T11:40:23.861Z,90932.09
2022-11-16T11:42:51.649Z,90931.84
2022-11-16T11:45:19.036Z,90933.56
2022-11-16T11:48:01.664Z,90930.06
2022-11-16T11:50:29.802Z,90932.28
2022-11-16T11:52:57.258Z,90931.75
2022-11-16T11:55:24.929Z,90931.63
2022-11-16T11:57:54.015Z,90919.72
2022-11-16T12:00:21.464Z,90921.88
2022-11-16T12:02:48.938Z,90916.78
2022-11-16T12:05:16.500Z,90905.41
2022-11-16T12:07:44.163Z,90908.72
2022-11-16T12:10:12.032Z,90900.50
2022-11-16T12:12:39.607Z,90906.44
2022-11-16T12:15:06.967Z,90902.78
2022-11-16T12:17:34.613Z,90899.00
2022-11-16T12:20:01.961Z,90897.53
2022-11-16T12:22:33.851Z,90895.03
2022-11-16T12:25:01.367Z,90895.31
2022-11-16T12:27:29.034Z,90892.81
2022-11-16T12:30:06.436Z,90884.41
2022-11-16T12:32:34.088Z,90890.13
2022-11-16T12:35:01.776Z,90873.72
2022-11-16T12:37:29.927Z,90884.59
2022-11-16T12:39:57.155Z,90881.34
2022-11-16T12:42:24.432Z,90878.47
2022-11-16T12:44:52.112Z,90876.72
2022-11-16T12:47:19.671Z,90876.66
2022-11-16T12:49:47.454Z,90879.84
2022-11-16T12:52:15.597Z,90869.97
2022-11-16T12:55:04.254Z,90872.28
2022-11-16T12:57:32.744Z,90869.56
2022-11-16T13:00:00.104Z,90869.38
2022-11-16T13:02:27.859Z,90855.69
2022-11-16T13:04:55.318Z,90856.22
2022-11-16T13:07:23.014Z,90855.13
2022-11-16T13:09:50.337Z,90850.72
2022-11-16T13:12:17.985Z,90847.97
2022-11-16T13:14:45.970Z,90847.47
2022-11-16T13:17:13.252Z,90839.41
2022-11-16T13:19:40.877Z,90838.97
2022-11-16T13:22:08.290Z,90832.13
2022-11-16T13:24:35.697Z,90835.91
2022-11-16T13:27:03.348Z,90826.41
2022-11-16T13:29:32.368Z,90826.97
2022-11-16T13:31:59.896Z,90823.81
2022-11-16T13:34:27.253Z,90820.63
2022-11-16T13:36:54.734Z,90816.41
2022-11-16T13:39:23.818Z,90829.19
2022-11-16T13:41:51.612Z,90822.22
2022-11-16T13:44:19.353Z,90819.97
2022-11-16T13:46:57.103Z,90821.94
2022-11-16T13:49:45.022Z,90821.50
2022-11-16T13:53:06.250Z,90821.19
2022-11-16T13:55:40.084Z,90828.72
2022-11-16T13:58:27.666Z,90811.19
2022-11-16T14:01:15.296Z,90803.13
2022-11-16T14:04:02.902Z,90809.69
2022-11-16T14:06:50.527Z,90804.59
2022-11-16T14:09:38.122Z,90825.63
2022-11-16T14:12:25.689Z,90808.63
2022-11-16T14:15:04.139Z,90800.91
2022-11-16T14:17:31.775Z,90791.78
2022-11-16T14:19:59.118Z,90787.22
2022-11-16T14:22:26.633Z,90795.06
2022-11-16T14:24:55.324Z,90782.78
2022-11-16T14:27:27.777Z,90781.97
2022-11-16T14:29:57.973Z,90779.63
2022-11-16T14:32:25.596Z,90777.13
2022-11-16T14:34:53.382Z,90789.53
2022-11-16T14:37:21.175Z,90794.19
2022-11-16T14:39:48.483Z,90794.78
2022-11-16T14:42:15.808Z,90785.00
2022-11-16T14:44:43.395Z,90781.31
2022-11-16T14:47:10.717Z,90773.75
2022-11-16T14:49:38.354Z,90772.81
2022-11-16T14:52:05.626Z,90766.97
2022-11-16T14:54:33.567Z,90760.84
2022-11-16T14:57:01.313Z,90764.06
2022-11-16T14:59:29.419Z,90758.16
2022-11-16T15:01:56.776Z,90752.66
2022-11-16T15:04:29.624Z,90756.34
2022-11-16T15:06:57.541Z,90761.94
2022-11-16T15:09:25.247Z,90767.16
2022-11-16T15:12:03.328Z,90765.97
2022-11-16T15:14:30.942Z,90773.34
2022-11-16T15:16:58.421Z,90783.72
2022-11-16T15:19:37.849Z,90783.50
2022-11-16T15:22:05.475Z,90787.34
2022-11-16T15:24:32.974Z,90783.56
2022-11-16T15:27:00.842Z,90776.31
2022-11-16T15:29:28.309Z,90782.38
2022-11-16T15:31:56.062Z,90773.88
2022-11-16T15:34:23.422Z,90772.91
2022-11-16T15:36:51.927Z,90766.66
2022-11-16T15:39:19.158Z,90758.66
2022-11-16T15:41:46.490Z,90758.94
2022-11-16T15:44:15.678Z,90758.97
2022-11-16T15:46:43.422Z,90756.81
2022-11-16T15:49:10.729Z,90748.97
2022-11-16T15:51:37.952Z,90757.44
2022-11-16T15:54:05.195Z,90747.16
2022-11-16T15:56:32.458Z,90744.94
2022-11-16T15:58:59.704Z,90744.47
2022-11-16T16:01:26.963Z,90732.66
2022-11-16T16:03:54.235Z,90736.59
2022-11-16T16:06:21.517Z,90723.66
2022-11-16T16:08:48.796Z,90723.03
2022-11-16T16:11:16.334Z,90731.06
2022-11-16T16:13:44.215Z,90733.56
2022-11-16T16:16:11.746Z,90731.75
2022-11-16T16:18:39.116Z,90731.25
2022-11-16T16:21:12.821Z,90735.03
2022-11-16T16:23:40.638Z,90735.53
2022-11-16T16:26:08.508Z,90730.94
2022-11-16T16:28:35.787Z,90735.06
2022-11-16T16:31:03.465Z,90733.97
2022-11-16T16:33:31.625Z,90732.22
2022-11-16T16:36:00.130Z,90736.91
2022-11-16T16:38:27.577Z,90735.78
2022-11-16T16:40:55.329Z,90731.72
2022-11-16T16:43:22.921Z,90731.34
2022-11-16T16:45:50.770Z,90729.16
2022-11-16T16:48:18.073Z,90729.56
2022-11-16T16:50:45.919Z,90724.84
2022-11-16T16:53:13.172Z,90717.94
2022-11-16T16:55:41.301Z,90721.00
2022-11-16T16:58:09.181Z,90720.13
2022-11-16T17:00:36.595Z,90720.22
2022-11-16T17:03:04.594Z,90730.94
2022-11-16T17:05:38.350Z,90725.94
2022-11-16T17:08:07.656Z,90720.84
2022-11-16T17:10:35.251Z,90717.75
2022-11-16T17:13:02.938Z,90713.31
2022-11-16T17:15:30.386Z,90720.03
2022-11-16T17:17:58.380Z,90709.41
2022-11-16T17:20:26.781Z,90710.34
2022-11-16T17:22:54.016Z,90705.69
2022-11-16T17:25:21.350Z,90708.34
2022-11-16T17:27:49.650Z,90693.88
2022-11-16T17:30:17.715Z,90700.97
2022-11-16T17:32:45.240Z,90693.75
2022-11-16T17:35:12.690Z,90698.28
2022-11-16T17:37:40.825Z,90694.59
2022-11-16T17:40:08.259Z,90696.34
2022-11-16T17:42:36.021Z,90690.88
2022-11-16T17:45:03.790Z,90690.19
2022-11-16T17:47:31.223Z,90693.28
2022-11-16T17:49:59.460Z,90690.81
2022-11-16T17:52:26.785Z,90683.59
2022-11-16T17:54:54.456Z,90668.22
2022-11-16T17:57:22.201Z,90652.13
2022-11-16T17:59:50.021Z,90643.69
2022-11-16T18:02:17.860Z,90638.94
2022-11-16T18:04:50.747Z,90629.53
2022-11-16T18:07:18.438Z,90625.13
2022-11-16T18:09:45.838Z,90611.31
2022-11-16T18:12:13.332Z,90611.22
2022-11-16T18:14:59.916Z,90617.72
2022-11-16T18:17:30.448Z,90617.31
2022-11-16T18:20:06.625Z,90612.56
2022-11-16T18:22:34.292Z,90615.69
2022-11-16T18:25:02.551Z,90627.69
2022-11-16T18:27:30.341Z,90624.50
2022-11-16T18:29:57.796Z,90628.28
2022-11-16T18:32:25.510Z,90627.91
2022-11-16T18:34:52.975Z,90623.03
2022-11-16T18:37:20.721Z,90617.47
2022-11-16T18:39:48.449Z,90618.34
2022-11-16T18:42:15.877Z,90618.59
2022-11-16T18:44:44.774Z,90604.66
2022-11-16T18:47:12.314Z,90601.09
2022-11-16T18:49:53.704Z,90603.44
2022-11-16T18:52:21.156Z,90592.97
2022-11-16T18:54:48.510Z,90592.19
2022-11-16T18:57:15.977Z,90573.16
2022-11-16T18:59:44.422Z,90583.38
2022-11-16T19:02:11.820Z,90590.00
2022-11-16T19:04:39.292Z,90574.94
2022-11-16T19:07:07.077Z,90575.78
2022-11-16T19:09:34.912Z,90567.75
2022-11-16T19:12:02.568Z,90560.53
2022-11-16T19:14:30.229Z,90556.28
2022-11-16T19:16:58.097Z,90564.06
2022-11-16T19:19:25.667Z,90566.03
2022-11-16T19:21:53.205Z,90568.22
2022-11-16T19:24:20.707Z,90567.91
2022-11-16T19:26:48.329Z,90564.31
2022-11-16T19:29:23.700Z,90556.59
2022-11-16T19:31:51.726Z,90547.78
2022-11-16T19:34:19.396Z,90559.56
2022-11-16T19:36:47.283Z,90549.53
2022-11-16T19:39:15.657Z,90551.19
2022-11-16T19:41:43.410Z,90538.09
2022-11-16T19:44:11.021Z,90513.97
2022-11-16T19:46:38.581Z,90508.50
2022-11-16T19:49:13.459Z,90515.50
2022-11-16T19:51:44.737Z,90512.06
2022-11-16T19:54:24.686Z,90511.63
2022-11-16T19:56:55.063Z,90520.75
2022-11-16T19:59:22.978Z,90533.16
2022-11-16T20:01:50.828Z,90533.78
2022-11-16T20:04:25.655Z,90526.50
2022-11-16T20:06:53.097Z,90515.09
2022-11-16T20:09:21.371Z,90514.09
2022-11-16T20:11:50.392Z,90505.50
2022-11-16T20:14:18.504Z,90511.13
2022-11-16T20:16:45.850Z,90517.41
2022-11-16T20:19:13.229Z,90524.41
2022-11-16T20:21:41.296Z,90525.91
2022-11-16T20:24:08.924Z,90537.63
2022-11-16T20:26:36.500Z,90547.03
2022-11-16T20:29:04.143Z,90544.72
2022-11-16T20:31:31.871Z,90534.38
2022-11-16T20:33:59.277Z,90536.19
2022-11-16T20:36:41.179Z,90531.47
2022-11-16T20:39:09.339Z,90545.25
2022-11-16T20:41:36.684Z,90548.72
2022-11-16T20:44:04.588Z,90547.50
2022-11-16T20:46:32.252Z,90549.34
2022-11-16T20:48:59.771Z,90556.72
2022-11-16T20:51:27.343Z,90556.31
2022-11-16T20:53:54.786Z,90554.69
2022-11-16T20:56:22.288Z,90554.41
2022-11-16T20:58:49.913Z,90555.53
2022-11-16T21:01:17.830Z,90560.88
2022-11-16T21:03:48.648Z,90586.09
2022-11-16T21:06:16.176Z,90589.72
2022-11-16T21:08:43.868Z,90579.69
2022-11-16T21:11:11.418Z,90585.44
2022-11-16T21:13:38.721Z,90574.91
2022-11-16T21:16:06.080Z,90583.06
2022-11-16T21:18:33.480Z,90582.94
2022-11-16T21:21:00.760Z,90583.50
2022-11-16T21:23:28.105Z,90584.44
2022-11-16T21:25:55.451Z,90583.53
2022-11-16T21:28:25.625Z,90579.91
2022-11-16T21:30:53.216Z,90573.00
2022-11-16T21:33:20.901Z,90578.78
2022-11-16T21:35:48.552Z,90580.44
2022-11-16T21:38:16.104Z,90583.81
2022-11-16T21:40:44.696Z,90587.63
2022-11-16T21:43:12.142Z,90581.22
2022-11-16T21:45:39.533Z,90580.88
2022-11-16T21:48:12.116Z,90574.59
2022-11-16T21:50:39.558Z,90572.25
2022-11-16T21:53:06.897Z,90573.44
2022-11-16T21:55:34.277Z,90576.50
2022-11-16T21:58:02.305Z,90573.09
2022-11-16T22:00:30.004Z,90568.44
2022-11-16T22:02:58.251Z,90568.81
2022-11-16T22:05:32.621Z,90572.19
2022-11-16T22:08:01.263Z,90566.59
2022-11-16T22:10:28.690Z,90561.38
2022-11-16T22:12:56.395Z,90556.97
2022-11-16T22:15:34.608Z,90554.06
2022-11-16T22:18:02.590Z,90559.56
2022-11-16T22:20:29.964Z,90552.28
2022-11-16T22:22:57.809Z,90560.03
2022-11-16T22:25:25.257Z,90551.97
2022-11-16T22:30:51.698Z,90549.06
2022-11-16T22:33:19.707Z,90548.22
2022-11-16T22:35:47.137Z,90544.50
2022-11-16T22:38:14.695Z,90551.44
2022-11-16T22:40:42.249Z,90559.75
2022-11-16T22:43:11.576Z,90551.59
2022-11-16T22:45:38.919Z,90545.16
2022-11-16T22:48:06.662Z,90522.50
2022-11-16T22:50:36.060Z,90522.56
2022-11-16T22:53:03.743Z,90527.06
2022-11-16T22:55:31.304Z,90537.09
2022-11-16T22:57:59.068Z,90542.69
2022-11-16T23:00:28.585Z,90539.81
2022-11-16T23:02:55.970Z,90549.63
2022-11-16T23:05:23.600Z,90548.44
2022-11-16T23:08:08.584Z,90543.78
2022-11-16T23:10:36.315Z,90546.41
2022-11-16T23:13:06.181Z,90560.94
2022-11-16T23:15:39.538Z,90562.53
2022-11-16T23:18:07.112Z,90574.69
2022-11-16T23:20:34.387Z,90571.72
2022-11-16T23:23:01.920Z,90574.22
2022-11-16T23:25:29.969Z,90569.16
2022-11-16T23:28:01.537Z,90567.72
2022-11-16T23:30:28.840Z,90558.72
2022-11-16T23:32:56.643Z,90571.75
2022-11-16T23:35:24.980Z,90561.00
2022-11-16T23:37:52.427Z,90532.88
2022-11-16T23:40:20.253Z,90533.78
2022-11-16T23:42:47.872Z,90530.94
2022-11-16T23:45:15.477Z,90549.00
2022-11-16T23:47:49.933Z,90546.00
2022-11-16T23:50:18.058Z,90528.03
2022-11-16T23:52:46.038Z,90504.56
2022-11-16T23:55:32.573Z,90482.53
2022-11-16T23:57:59.929Z,90464.78
